createdAt,value
2023-04-28T00:00:44.721Z,952.4
2023-04-28T00:01:46.669Z,952.4
2023-04-28T00:02:48.945Z,952.4
2023-04-28T00:03:51.646Z,952.3
2023-04-28T00:04:54.604Z,952.3
2023-04-28T00:05:57.061Z,952.3
2023-04-28T00:06:59.008Z,952.4
2023-04-28T00:08:00.791Z,952.3
2023-04-28T00:09:02.603Z,952.3
2023-04-28T00:10:04.576Z,952.4
2023-04-28T00:11:06.515Z,952.3
2023-04-28T00:12:08.350Z,952.4
2023-04-28T00:13:10.302Z,952.4
2023-04-28T00:14:12.175Z,952.4
2023-04-28T00:15:14.002Z,952.3
2023-04-28T00:16:15.991Z,952.4
2023-04-28T00:17:18.141Z,952.4
2023-04-28T00:18:20.288Z,952.4
2023-04-28T00:19:22.124Z,952.4
2023-04-28T00:20:23.970Z,952.4
2023-04-28T00:21:25.815Z,952.4
2023-04-28T00:22:27.610Z,952.4
2023-04-28T00:23:29.516Z,952.4
2023-04-28T00:24:31.254Z,952.4
2023-04-28T00:25:33.045Z,952.4
2023-04-28T00:26:34.873Z,952.4
2023-04-28T00:27:36.645Z,952.4
2023-04-28T00:28:38.461Z,952.4
2023-04-28T00:29:40.307Z,952.4
2023-04-28T00:30:42.058Z,952.4
2023-04-28T00:31:44.087Z,952.4
2023-04-28T00:32:46.437Z,952.4
2023-04-28T00:33:48.316Z,952.4
2023-04-28T00:34:50.171Z,952.4
2023-04-28T00:35:52.030Z,952.4
2023-04-28T00:36:53.763Z,952.4
2023-04-28T00:37:55.619Z,952.5
2023-04-28T00:38:57.474Z,952.4
2023-04-28T00:39:59.212Z,952.5
2023-04-28T00:41:01.105Z,952.5
2023-04-28T00:42:02.936Z,952.5
2023-04-28T00:43:04.786Z,952.5
2023-04-28T00:44:06.718Z,952.5
2023-04-28T00:45:08.585Z,952.4
2023-04-28T00:46:10.556Z,952.5
2023-04-28T00:47:12.696Z,952.5
2023-04-28T00:48:14.541Z,952.5
2023-04-28T00:49:16.487Z,952.5
2023-04-28T00:50:18.226Z,952.4
2023-04-28T00:51:19.906Z,952.4
2023-04-28T00:52:21.742Z,952.4
2023-04-28T00:53:23.574Z,952.4
2023-04-28T00:54:25.537Z,952.5
2023-04-28T00:55:27.285Z,952.5
2023-04-28T00:56:29.152Z,952.5
2023-04-28T00:57:30.990Z,952.5
2023-04-28T00:58:32.820Z,952.5
2023-04-28T00:59:34.693Z,952.5
2023-04-28T01:00:36.632Z,952.5
2023-04-28T01:01:38.973Z,952.5
2023-04-28T01:02:41.422Z,952.5
2023-04-28T01:03:43.952Z,952.5
2023-04-28T01:04:46.528Z,952.5
2023-04-28T01:05:48.538Z,952.5
2023-04-28T01:06:50.396Z,952.6
2023-04-28T01:07:52.248Z,952.5
2023-04-28T01:08:54.089Z,952.6
2023-04-28T01:09:55.946Z,952.6
2023-04-28T01:10:57.903Z,952.6
2023-04-28T01:11:59.767Z,952.6
2023-04-28T01:13:01.607Z,952.6
2023-04-28T01:14:03.458Z,952.6
2023-04-28T01:15:05.506Z,952.6
2023-04-28T01:16:07.479Z,952.6
2023-04-28T01:17:09.502Z,952.6
2023-04-28T01:18:11.378Z,952.6
2023-04-28T01:19:13.426Z,952.6
2023-04-28T01:20:15.395Z,952.6
2023-04-28T01:21:17.328Z,952.6
2023-04-28T01:22:19.182Z,952.6
2023-04-28T01:23:21.021Z,952.6
2023-04-28T01:24:22.782Z,952.6
2023-04-28T01:25:24.612Z,952.6
2023-04-28T01:26:26.491Z,952.6
2023-04-28T01:27:28.861Z,952.6
2023-04-28T01:28:30.788Z,952.6
2023-04-28T01:29:32.644Z,952.7
2023-04-28T01:30:34.585Z,952.7
2023-04-28T01:31:36.457Z,952.7
2023-04-28T01:32:38.400Z,952.7
2023-04-28T01:33:40.239Z,952.7
2023-04-28T01:34:42.092Z,952.7
2023-04-28T01:35:44.032Z,952.7
2023-04-28T01:36:45.983Z,952.7
2023-04-28T01:37:47.971Z,952.7
2023-04-28T01:38:49.785Z,952.7
2023-04-28T01:39:51.643Z,952.7
2023-04-28T01:40:53.486Z,952.7
2023-04-28T01:41:55.448Z,952.7
2023-04-28T01:42:57.226Z,952.7
2023-04-28T01:43:59.042Z,952.7
2023-04-28T01:45:00.884Z,952.7
2023-04-28T01:46:02.950Z,952.7
2023-04-28T01:47:05.001Z,952.7
2023-04-28T01:48:07.195Z,952.7
2023-04-28T01:49:09.115Z,952.7
2023-04-28T01:50:10.966Z,952.6
2023-04-28T01:51:12.812Z,952.6
2023-04-28T01:52:14.764Z,952.7
2023-04-28T01:53:16.820Z,952.6
2023-04-28T01:54:19.389Z,952.7
2023-04-28T01:55:21.165Z,952.7
2023-04-28T01:56:22.984Z,952.7
2023-04-28T01:57:24.928Z,952.7
2023-04-28T01:58:27.010Z,952.6
2023-04-28T01:59:28.943Z,952.6
2023-04-28T02:00:30.788Z,952.7
2023-04-28T02:01:32.741Z,952.7
2023-04-28T02:02:34.938Z,952.7
2023-04-28T02:03:37.432Z,952.7
2023-04-28T02:04:39.790Z,952.7
2023-04-28T02:05:41.689Z,952.7
2023-04-28T02:06:46.104Z,952.7
2023-04-28T02:07:47.943Z,952.7
2023-04-28T02:08:49.598Z,952.7
2023-04-28T02:09:51.436Z,952.7
2023-04-28T02:10:53.284Z,952.7
2023-04-28T02:11:55.140Z,952.7
2023-04-28T02:12:56.967Z,952.7
2023-04-28T02:13:58.958Z,952.7
2023-04-28T02:15:00.784Z,952.7
2023-04-28T02:16:02.950Z,952.7
2023-04-28T02:17:04.806Z,952.8
2023-04-28T02:18:06.776Z,952.7
2023-04-28T02:19:08.590Z,952.7
2023-04-28T02:20:13.352Z,952.8
2023-04-28T02:21:15.173Z,952.8
2023-04-28T02:22:17.015Z,952.8
2023-04-28T02:23:18.865Z,952.8
2023-04-28T02:24:20.719Z,952.8
2023-04-28T02:25:22.570Z,952.8
2023-04-28T02:26:24.416Z,952.8
2023-04-28T02:27:26.275Z,952.8
2023-04-28T02:28:28.116Z,952.8
2023-04-28T02:29:29.880Z,952.8
2023-04-28T02:30:31.815Z,952.8
2023-04-28T02:31:33.912Z,952.8
2023-04-28T02:32:36.219Z,952.8
2023-04-28T02:33:38.183Z,952.9
2023-04-28T02:34:40.042Z,952.8
2023-04-28T02:35:42.089Z,952.8
2023-04-28T02:36:43.955Z,952.9
2023-04-28T02:37:45.801Z,952.8
2023-04-28T02:38:47.635Z,952.9
2023-04-28T02:39:49.589Z,952.9
2023-04-28T02:40:51.548Z,952.9
2023-04-28T02:41:53.383Z,952.9
2023-04-28T02:42:55.234Z,952.9
2023-04-28T02:43:57.103Z,952.9
2023-04-28T02:44:58.869Z,952.9
2023-04-28T02:46:00.799Z,952.9
2023-04-28T02:47:02.974Z,952.9
2023-04-28T02:48:05.025Z,952.9
2023-04-28T02:49:06.954Z,952.9
2023-04-28T02:50:08.828Z,952.9
2023-04-28T02:51:10.753Z,953
2023-04-28T02:52:12.604Z,952.9
2023-04-28T02:53:14.454Z,953
2023-04-28T02:54:16.979Z,953
2023-04-28T02:55:19.188Z,953
2023-04-28T02:56:20.925Z,952.9
2023-04-28T02:57:22.775Z,953
2023-04-28T02:58:24.627Z,953
2023-04-28T02:59:26.476Z,953
2023-04-28T03:00:28.360Z,953
2023-04-28T03:01:30.305Z,953
2023-04-28T03:02:32.576Z,953
2023-04-28T03:03:35.165Z,953
2023-04-28T03:04:37.197Z,953
2023-04-28T03:05:39.108Z,953
2023-04-28T03:06:40.871Z,953.1
2023-04-28T03:07:42.605Z,953
2023-04-28T03:08:44.374Z,953.1
2023-04-28T03:09:46.227Z,953.2
2023-04-28T03:10:48.061Z,953.1
2023-04-28T03:11:50.016Z,953.1
2023-04-28T03:12:51.866Z,953.2
2023-04-28T03:13:53.615Z,953.1
2023-04-28T03:14:58.224Z,953.2
2023-04-28T03:16:00.284Z,953.2
2023-04-28T03:17:02.172Z,953.1
2023-04-28T03:18:04.264Z,953.1
2023-04-28T03:19:06.236Z,953.1
2023-04-28T03:20:08.191Z,953.1
2023-04-28T03:21:10.035Z,953.1
2023-04-28T03:22:11.993Z,953.2
2023-04-28T03:23:13.848Z,953.2
2023-04-28T03:24:16.447Z,953.2
2023-04-28T03:25:18.991Z,953.2
2023-04-28T03:26:20.732Z,953.2
2023-04-28T03:27:22.579Z,953.3
2023-04-28T03:28:24.430Z,953.3
2023-04-28T03:29:26.224Z,953.3
2023-04-28T03:30:28.146Z,953.3
2023-04-28T03:31:30.024Z,953.3
2023-04-28T03:32:31.957Z,953.3
2023-04-28T03:33:33.882Z,953.3
2023-04-28T03:34:35.727Z,953.4
2023-04-28T03:35:37.471Z,953.4
2023-04-28T03:36:39.327Z,953.4
2023-04-28T03:37:41.281Z,953.4
2023-04-28T03:38:43.098Z,953.4
2023-04-28T03:39:44.995Z,953.4
2023-04-28T03:40:46.939Z,953.4
2023-04-28T03:41:48.783Z,953.4
2023-04-28T03:42:50.629Z,953.5
2023-04-28T03:43:52.431Z,953.5
2023-04-28T03:44:54.430Z,953.5
2023-04-28T03:45:56.339Z,953.5
2023-04-28T03:46:58.156Z,953.5
2023-04-28T03:48:00.220Z,953.5
2023-04-28T03:49:02.115Z,953.5
2023-04-28T03:50:04.200Z,953.5
2023-04-28T03:51:05.937Z,953.6
2023-04-28T03:52:08.019Z,953.6
2023-04-28T03:53:09.741Z,953.6
2023-04-28T03:54:11.480Z,953.6
2023-04-28T03:55:13.438Z,953.7
2023-04-28T03:56:18.241Z,953.6
2023-04-28T03:57:20.123Z,953.6
2023-04-28T03:58:21.865Z,953.6
2023-04-28T03:59:23.648Z,953.7
2023-04-28T04:00:25.575Z,953.7
2023-04-28T04:01:28.451Z,953.7
2023-04-28T04:02:30.686Z,953.8
2023-04-28T04:03:33.432Z,953.8
2023-04-28T04:04:36.647Z,953.8
2023-04-28T04:05:39.074Z,953.8
2023-04-28T04:06:40.971Z,953.8
2023-04-28T04:07:42.753Z,953.8
2023-04-28T04:08:44.683Z,953.9
2023-04-28T04:09:46.512Z,953.9
2023-04-28T04:10:48.366Z,953.9
2023-04-28T04:11:53.167Z,953.9
2023-04-28T04:12:55.040Z,953.9
2023-04-28T04:13:57.004Z,953.9
2023-04-28T04:14:58.853Z,953.9
2023-04-28T04:16:00.934Z,954
2023-04-28T04:17:02.823Z,954
2023-04-28T04:18:04.805Z,954
2023-04-28T04:19:06.648Z,953.9
2023-04-28T04:20:08.504Z,954
2023-04-28T04:21:10.240Z,953.9
2023-04-28T04:22:12.105Z,954
2023-04-28T04:23:13.950Z,954
2023-04-28T04:24:16.747Z,954
2023-04-28T04:25:20.936Z,954
2023-04-28T04:26:25.034Z,954
2023-04-28T04:27:26.893Z,954
2023-04-28T04:28:28.737Z,954
2023-04-28T04:29:30.469Z,954
2023-04-28T04:30:32.382Z,954
2023-04-28T04:31:34.386Z,954
2023-04-28T04:32:36.451Z,954.1
2023-04-28T04:33:38.313Z,954.1
2023-04-28T04:34:40.238Z,954.1
2023-04-28T04:35:42.084Z,954
2023-04-28T04:36:44.037Z,954.1
2023-04-28T04:37:45.778Z,954.1
2023-04-28T04:38:47.622Z,954.1
2023-04-28T04:39:49.480Z,954
2023-04-28T04:40:51.343Z,954.1
2023-04-28T04:41:53.200Z,954.1
2023-04-28T04:42:55.034Z,954.1
2023-04-28T04:43:56.890Z,954.1
2023-04-28T04:44:58.844Z,954.1
2023-04-28T04:46:00.689Z,954.1
2023-04-28T04:47:02.695Z,954.1
2023-04-28T04:48:04.600Z,954.1
2023-04-28T04:49:06.467Z,954.1
2023-04-28T04:50:08.389Z,954.2
2023-04-28T04:51:10.196Z,954.1
2023-04-28T04:52:12.006Z,954.2
2023-04-28T04:53:16.913Z,954.2
2023-04-28T04:54:18.774Z,954.2
2023-04-28T04:55:20.734Z,954.2
2023-04-28T04:56:22.569Z,954.2
2023-04-28T04:57:24.344Z,954.2
2023-04-28T04:58:26.174Z,954.2
2023-04-28T04:59:28.126Z,954.2
2023-04-28T05:00:30.077Z,954.2
2023-04-28T05:01:32.753Z,954.3
2023-04-28T05:02:35.303Z,954.3
2023-04-28T05:03:38.004Z,954.3
2023-04-28T05:04:40.585Z,954.3
2023-04-28T05:05:46.515Z,954.3
2023-04-28T05:06:48.345Z,954.3
2023-04-28T05:07:50.212Z,954.3
2023-04-28T05:08:52.046Z,954.3
2023-04-28T05:09:53.892Z,954.3
2023-04-28T05:10:55.757Z,954.3
2023-04-28T05:11:57.593Z,954.3
2023-04-28T05:12:59.461Z,954.3
2023-04-28T05:14:01.264Z,954.3
2023-04-28T05:15:03.065Z,954.3
2023-04-28T05:16:05.024Z,954.3
2023-04-28T05:17:06.838Z,954.3
2023-04-28T05:18:09.017Z,954.3
2023-04-28T05:19:10.848Z,954.3
2023-04-28T05:20:13.430Z,954.3
2023-04-28T05:21:15.492Z,954.3
2023-04-28T05:22:17.529Z,954.3
2023-04-28T05:23:19.584Z,954.3
2023-04-28T05:24:21.423Z,954.3
2023-04-28T05:25:23.201Z,954.3
2023-04-28T05:26:25.525Z,954.3
2023-04-28T05:27:28.068Z,954.4
2023-04-28T05:28:32.770Z,954.3
2023-04-28T05:29:34.674Z,954.3
2023-04-28T05:30:36.635Z,954.3
2023-04-28T05:31:38.529Z,954.3
2023-04-28T05:32:40.556Z,954.3
2023-04-28T05:33:42.395Z,954.3
2023-04-28T05:34:44.229Z,954.3
2023-04-28T05:35:46.122Z,954.3
2023-04-28T05:36:48.040Z,954.3
2023-04-28T05:37:49.987Z,954.3
2023-04-28T05:38:51.840Z,954.3
2023-04-28T05:39:53.620Z,954.3
2023-04-28T05:40:55.452Z,954.3
2023-04-28T05:41:57.292Z,954.3
2023-04-28T05:42:59.153Z,954.3
2023-04-28T05:44:01.054Z,954.3
2023-04-28T05:45:03.051Z,954.3
2023-04-28T05:46:30.893Z,954.3
2023-04-28T05:47:33.276Z,954.3
2023-04-28T05:48:35.231Z,954.3
2023-04-28T05:49:37.265Z,954.3
2023-04-28T05:50:39.625Z,954.3
2023-04-28T05:51:41.619Z,954.3
2023-04-28T05:52:43.290Z,954.3
2023-04-28T05:53:45.009Z,954.3
2023-04-28T05:54:47.359Z,954.3
2023-04-28T05:55:49.062Z,954.3
2023-04-28T05:56:51.036Z,954.3
2023-04-28T05:57:54.120Z,954.3
2023-04-28T05:58:56.001Z,954.4
2023-04-28T05:59:57.699Z,954.3
2023-04-28T06:00:59.459Z,954.4
2023-04-28T06:02:01.575Z,954.3
2023-04-28T06:03:04.022Z,954.3
2023-04-28T06:04:07.376Z,954.3
2023-04-28T06:05:10.599Z,954.3
2023-04-28T06:06:13.482Z,954.3
2023-04-28T06:07:15.439Z,954.3
2023-04-28T06:08:17.493Z,954.3
2023-04-28T06:09:19.519Z,954.3
2023-04-28T06:10:21.336Z,954.3
2023-04-28T06:11:23.305Z,954.3
2023-04-28T06:12:25.244Z,954.3
2023-04-28T06:13:27.712Z,954.3
2023-04-28T06:14:29.729Z,954.3
2023-04-28T06:15:31.619Z,954.3
2023-04-28T06:16:33.802Z,954.3
2023-04-28T06:17:35.753Z,954.3
2023-04-28T06:18:37.636Z,954.3
2023-04-28T06:19:39.531Z,954.3
2023-04-28T06:20:41.380Z,954.3
2023-04-28T06:21:43.136Z,954.3
2023-04-28T06:22:44.886Z,954.4
2023-04-28T06:23:46.712Z,954.3
2023-04-28T06:24:48.651Z,954.4
2023-04-28T06:25:50.537Z,954.3
2023-04-28T06:26:52.291Z,954.4
2023-04-28T06:27:54.231Z,954.4
2023-04-28T06:28:56.015Z,954.4
2023-04-28T06:29:57.922Z,954.4
2023-04-28T06:31:00.020Z,954.4
2023-04-28T06:32:02.055Z,954.4
2023-04-28T06:33:04.428Z,954.4
2023-04-28T06:34:06.253Z,954.4
2023-04-28T06:35:08.096Z,954.4
2023-04-28T06:36:09.943Z,954.4
2023-04-28T06:37:11.810Z,954.4
2023-04-28T06:38:13.660Z,954.4
2023-04-28T06:39:15.506Z,954.4
2023-04-28T06:40:17.477Z,954.4
2023-04-28T06:41:19.414Z,954.3
2023-04-28T06:42:21.239Z,954.3
2023-04-28T06:43:23.013Z,954.3
2023-04-28T06:44:24.839Z,954.3
2023-04-28T06:45:26.695Z,954.3
2023-04-28T06:46:28.975Z,954.3
2023-04-28T06:47:31.846Z,954.3
2023-04-28T06:48:33.572Z,954.3
2023-04-28T06:49:35.450Z,954.3
2023-04-28T06:50:37.379Z,954.3
2023-04-28T06:51:39.028Z,954.3
2023-04-28T06:52:40.883Z,954.3
2023-04-28T06:53:42.753Z,954.3
2023-04-28T06:54:44.799Z,954.3
2023-04-28T06:55:46.610Z,954.3
2023-04-28T06:56:48.393Z,954.3
2023-04-28T06:57:50.165Z,954.3
2023-04-28T06:58:51.998Z,954.2
2023-04-28T06:59:53.891Z,954.3
2023-04-28T07:00:56.046Z,954.3
2023-04-28T07:01:58.198Z,954.3
2023-04-28T07:03:00.934Z,954.3
2023-04-28T07:04:04.238Z,954.3
2023-04-28T07:05:06.463Z,954.3
2023-04-28T07:06:08.504Z,954.3
2023-04-28T07:07:10.369Z,954.3
2023-04-28T07:08:13.028Z,954.3
2023-04-28T07:09:15.826Z,954.3
2023-04-28T07:10:17.750Z,954.3
2023-04-28T07:11:19.629Z,954.3
2023-04-28T07:12:21.659Z,954.3
2023-04-28T07:13:23.515Z,954.3
2023-04-28T07:14:25.658Z,954.4
2023-04-28T07:15:27.712Z,954.3
2023-04-28T07:16:29.857Z,954.3
2023-04-28T07:17:31.970Z,954.3
2023-04-28T07:18:33.891Z,954.2
2023-04-28T07:19:35.746Z,954.3
2023-04-28T07:20:37.688Z,954.3
2023-04-28T07:21:39.535Z,954.3
2023-04-28T07:22:41.384Z,954.3
2023-04-28T07:23:43.165Z,954.2
2023-04-28T07:24:44.920Z,954.3
2023-04-28T07:25:46.835Z,954.3
2023-04-28T07:26:48.704Z,954.3
2023-04-28T07:27:54.025Z,954.2
2023-04-28T07:28:55.860Z,954.3
2023-04-28T07:29:57.662Z,954.2
2023-04-28T07:30:59.981Z,954.3
2023-04-28T07:32:02.009Z,954.3
2023-04-28T07:33:04.130Z,954.2
2023-04-28T07:34:06.144Z,954.3
2023-04-28T07:35:08.409Z,954.2
2023-04-28T07:36:10.288Z,954.3
2023-04-28T07:37:12.185Z,954.3
2023-04-28T07:38:14.267Z,954.3
2023-04-28T07:39:16.251Z,954.2
2023-04-28T07:40:18.402Z,954.2
2023-04-28T07:41:20.353Z,954.2
2023-04-28T07:42:22.281Z,954.3
2023-04-28T07:43:24.084Z,954.2
2023-04-28T07:44:25.979Z,954.3
2023-04-28T07:45:27.678Z,954.3
2023-04-28T07:46:29.928Z,954.2
2023-04-28T07:47:32.047Z,954.3
2023-04-28T07:48:34.104Z,954.3
2023-04-28T07:49:35.840Z,954.3
2023-04-28T07:50:37.700Z,954.3
2023-04-28T07:51:39.540Z,954.3
2023-04-28T07:52:41.493Z,954.3
2023-04-28T07:53:43.240Z,954.3
2023-04-28T07:54:45.095Z,954.3
2023-04-28T07:55:47.103Z,954.2
2023-04-28T07:56:48.986Z,954.3
2023-04-28T07:57:50.942Z,954.3
2023-04-28T07:58:52.773Z,954.2
2023-04-28T07:59:54.572Z,954.3
2023-04-28T08:00:56.488Z,954.3
2023-04-28T08:01:58.585Z,954.2
2023-04-28T08:03:00.951Z,954.2
2023-04-28T08:04:03.911Z,954.2
2023-04-28T08:05:07.016Z,954.2
2023-04-28T08:06:09.665Z,954.3
2023-04-28T08:07:11.590Z,954.2
2023-04-28T08:08:13.440Z,954.2
2023-04-28T08:09:15.178Z,954.2
2023-04-28T08:10:17.139Z,954.2
2023-04-28T08:11:18.936Z,954.2
2023-04-28T08:12:20.751Z,954.2
2023-04-28T08:13:22.586Z,954.2
2023-04-28T08:14:24.427Z,954.2
2023-04-28T08:15:26.134Z,954.2
2023-04-28T08:16:28.276Z,954.2
2023-04-28T08:17:30.549Z,954.2
2023-04-28T08:18:32.996Z,954.2
2023-04-28T08:19:34.840Z,954.2
2023-04-28T08:20:36.661Z,954.2
2023-04-28T08:21:38.518Z,954.2
2023-04-28T08:22:40.421Z,954.2
2023-04-28T08:23:42.424Z,954.2
2023-04-28T08:24:44.268Z,954.2
2023-04-28T08:25:46.126Z,954.2
2023-04-28T08:26:47.992Z,954.2
2023-04-28T08:27:49.815Z,954.2
2023-04-28T08:28:51.776Z,954.2
2023-04-28T08:29:54.126Z,954.2
2023-04-28T08:30:56.234Z,954.2
2023-04-28T08:31:58.140Z,954.2
2023-04-28T08:33:00.221Z,954.1
2023-04-28T08:34:02.258Z,954.1
2023-04-28T08:35:04.134Z,954.1
2023-04-28T08:36:06.009Z,954.1
2023-04-28T08:37:07.993Z,954.1
2023-04-28T08:38:10.109Z,954.1
2023-04-28T08:39:14.163Z,954.1
2023-04-28T08:40:16.117Z,954.1
2023-04-28T08:41:17.889Z,954.1
2023-04-28T08:42:19.952Z,954.1
2023-04-28T08:43:22.017Z,954.1
2023-04-28T08:44:24.028Z,954
2023-04-28T08:45:28.745Z,954
2023-04-28T08:46:30.734Z,954
2023-04-28T08:47:32.974Z,954
2023-04-28T08:48:35.227Z,954
2023-04-28T08:49:37.069Z,954
2023-04-28T08:50:38.869Z,954.1
2023-04-28T08:51:42.599Z,954
2023-04-28T08:52:44.458Z,954
2023-04-28T08:54:29.986Z,954
2023-04-28T08:55:31.812Z,954.1
2023-04-28T08:56:33.636Z,954
2023-04-28T08:57:35.804Z,954
2023-04-28T08:58:37.646Z,954
2023-04-28T08:59:39.413Z,954
2023-04-28T09:00:41.238Z,954
2023-04-28T09:01:43.617Z,954
2023-04-28T09:02:46.048Z,954
2023-04-28T09:03:48.795Z,954
2023-04-28T09:04:52.489Z,954
2023-04-28T09:05:55.007Z,953.9
2023-04-28T09:06:56.862Z,953.9
2023-04-28T09:07:58.697Z,953.9
2023-04-28T09:09:00.543Z,953.9
2023-04-28T09:10:02.384Z,953.9
2023-04-28T09:11:04.241Z,953.9
2023-04-28T09:12:06.000Z,953.9
2023-04-28T09:13:07.961Z,953.9
2023-04-28T09:14:09.869Z,953.8
2023-04-28T09:15:11.840Z,953.9
2023-04-28T09:16:13.909Z,953.8
2023-04-28T09:17:16.782Z,953.8
2023-04-28T09:18:18.666Z,953.8
2023-04-28T09:19:20.582Z,953.8
2023-04-28T09:20:22.514Z,953.8
2023-04-28T09:21:24.502Z,953.7
2023-04-28T09:22:27.681Z,953.7
2023-04-28T09:23:29.519Z,953.7
2023-04-28T09:24:31.506Z,953.7
2023-04-28T09:25:33.434Z,953.7
2023-04-28T09:26:35.268Z,953.7
2023-04-28T09:27:37.124Z,953.7
2023-04-28T09:28:39.109Z,953.7
2023-04-28T09:29:40.797Z,953.7
2023-04-28T09:30:42.989Z,953.7
2023-04-28T09:31:45.054Z,953.7
2023-04-28T09:32:47.122Z,953.7
2023-04-28T09:33:49.155Z,953.7
2023-04-28T09:34:50.894Z,953.7
2023-04-28T09:35:52.771Z,953.7
2023-04-28T09:36:54.678Z,953.6
2023-04-28T09:37:56.671Z,953.6
2023-04-28T09:38:58.610Z,953.6
2023-04-28T09:40:00.490Z,953.6
2023-04-28T09:41:02.403Z,953.6
2023-04-28T09:42:04.408Z,953.5
2023-04-28T09:43:22.523Z,953.6
2023-04-28T09:44:24.283Z,953.6
2023-04-28T09:45:26.085Z,953.5
2023-04-28T09:46:28.695Z,953.6
2023-04-28T09:47:30.786Z,953.5
2023-04-28T09:48:32.791Z,953.5
2023-04-28T09:49:35.345Z,953.5
2023-04-28T09:50:37.242Z,953.5
2023-04-28T09:51:39.030Z,953.5
2023-04-28T09:52:40.839Z,953.4
2023-04-28T09:53:42.739Z,953.4
2023-04-28T09:54:44.586Z,953.4
2023-04-28T09:55:47.065Z,953.4
2023-04-28T09:56:49.115Z,953.4
2023-04-28T09:57:50.950Z,953.4
2023-04-28T09:58:52.618Z,953.4
2023-04-28T09:59:54.461Z,953.4
2023-04-28T10:00:56.455Z,953.3
2023-04-28T10:01:58.313Z,953.3
2023-04-28T10:03:00.568Z,953.3
2023-04-28T10:04:03.143Z,953.3
2023-04-28T10:05:05.902Z,953.3
2023-04-28T10:06:08.302Z,953.3
2023-04-28T10:07:10.059Z,953.3
2023-04-28T10:08:11.915Z,953.2
2023-04-28T10:09:13.739Z,953.2
2023-04-28T10:10:15.942Z,953.2
2023-04-28T10:11:17.863Z,953.2
2023-04-28T10:12:19.724Z,953.1
2023-04-28T10:13:21.520Z,953.2
2023-04-28T10:14:23.421Z,953.2
2023-04-28T10:15:25.121Z,953.2
2023-04-28T10:16:27.378Z,953.1
2023-04-28T10:17:30.045Z,953.2
2023-04-28T10:18:31.945Z,953.2
2023-04-28T10:19:33.773Z,953.1
2023-04-28T10:20:35.648Z,953.1
2023-04-28T10:21:37.589Z,953.1
2023-04-28T10:22:39.840Z,953.1
2023-04-28T10:23:41.586Z,953.1
2023-04-28T10:24:43.250Z,953.1
2023-04-28T10:25:45.103Z,953.1
2023-04-28T10:26:47.248Z,953.1
2023-04-28T10:27:49.066Z,953.1
2023-04-28T10:28:51.105Z,953.1
2023-04-28T10:29:53.031Z,953
2023-04-28T10:30:55.053Z,953.1
2023-04-28T10:31:57.439Z,953.1
2023-04-28T10:32:59.963Z,953.1
2023-04-28T10:34:02.051Z,953.1
2023-04-28T10:35:03.898Z,953.1
2023-04-28T10:36:05.865Z,953.1
2023-04-28T10:37:07.824Z,953.1
2023-04-28T10:38:09.636Z,953.1
2023-04-28T10:39:11.613Z,953
2023-04-28T10:40:13.966Z,953
2023-04-28T10:41:16.017Z,953
2023-04-28T10:42:17.849Z,953
2023-04-28T10:43:20.244Z,953
2023-04-28T10:44:22.075Z,953
2023-04-28T10:45:23.934Z,952.9
2023-04-28T10:46:26.151Z,952.9
2023-04-28T10:47:28.162Z,952.9
2023-04-28T10:48:30.207Z,952.9
2023-04-28T10:49:32.050Z,952.8
2023-04-28T10:50:39.740Z,952.8
2023-04-28T10:51:41.478Z,952.8
2023-04-28T10:52:43.403Z,952.8
2023-04-28T10:53:47.750Z,952.7
2023-04-28T10:54:49.588Z,952.8
2023-04-28T10:55:51.431Z,952.8
2023-04-28T10:56:53.287Z,952.8
2023-04-28T10:57:55.002Z,952.8
2023-04-28T10:58:57.393Z,952.8
2023-04-28T10:59:59.269Z,952.8
2023-04-28T11:01:01.933Z,952.8
2023-04-28T11:02:04.009Z,952.8
2023-04-28T11:03:06.412Z,952.8
2023-04-28T11:04:09.398Z,952.8
2023-04-28T11:05:12.520Z,952.8
2023-04-28T11:06:15.010Z,952.7
2023-04-28T11:07:16.989Z,952.7
2023-04-28T11:08:18.996Z,952.7
2023-04-28T11:09:20.918Z,952.7
2023-04-28T11:10:22.762Z,952.6
2023-04-28T11:11:25.140Z,952.7
2023-04-28T11:12:26.932Z,952.6
2023-04-28T11:13:30.115Z,952.6
2023-04-28T11:14:32.508Z,952.6
2023-04-28T11:15:34.589Z,952.6
2023-04-28T11:16:36.729Z,952.6
2023-04-28T11:17:38.712Z,952.6
2023-04-28T11:18:40.458Z,952.6
2023-04-28T11:19:42.361Z,952.6
2023-04-28T11:20:44.166Z,952.6
2023-04-28T11:21:46.094Z,952.6
2023-04-28T11:22:47.942Z,952.6
2023-04-28T11:23:49.896Z,952.6
2023-04-28T11:24:54.397Z,952.6
2023-04-28T11:25:56.156Z,952.6
2023-04-28T11:26:58.105Z,952.6
2023-04-28T11:28:00.060Z,952.6
2023-04-28T11:29:01.929Z,952.5
2023-04-28T11:30:03.864Z,952.5
2023-04-28T11:31:05.711Z,952.5
2023-04-28T11:32:08.002Z,952.5
2023-04-28T11:33:11.610Z,952.5
2023-04-28T11:34:13.510Z,952.5
2023-04-28T11:35:15.330Z,952.4
2023-04-28T11:36:17.202Z,952.4
2023-04-28T11:37:19.791Z,952.3
2023-04-28T11:38:21.835Z,952.3
2023-04-28T11:39:24.315Z,952.4
2023-04-28T11:40:26.250Z,952.4
2023-04-28T11:41:28.113Z,952.3
2023-04-28T11:42:29.951Z,952.4
2023-04-28T11:43:47.979Z,952.4
2023-04-28T11:44:49.834Z,952.3
2023-04-28T11:45:51.884Z,952.3
2023-04-28T11:46:53.931Z,952.3
2023-04-28T11:47:56.281Z,952.3
2023-04-28T11:48:58.284Z,952.3
2023-04-28T11:50:00.180Z,952.3
2023-04-28T11:51:01.850Z,952.3
2023-04-28T11:52:03.536Z,952.3
2023-04-28T11:53:05.477Z,952.3
2023-04-28T11:54:07.302Z,952.3
2023-04-28T11:55:09.044Z,952.2
2023-04-28T11:56:10.788Z,952.2
2023-04-28T11:57:12.641Z,952.2
2023-04-28T11:58:14.604Z,952.2
2023-04-28T11:59:16.548Z,952.2
2023-04-28T12:00:18.327Z,952.1
2023-04-28T12:01:20.090Z,952.2
2023-04-28T12:02:22.249Z,952.2
2023-04-28T12:03:24.973Z,952.2
2023-04-28T12:04:27.737Z,952.2
2023-04-28T12:05:29.707Z,952.1
2023-04-28T12:06:31.544Z,952.2
2023-04-28T12:07:33.486Z,952.2
2023-04-28T12:08:35.264Z,952.2
2023-04-28T12:09:37.091Z,952.2
2023-04-28T12:10:38.976Z,952.1
2023-04-28T12:11:40.914Z,952.1
2023-04-28T12:12:53.701Z,952.1
2023-04-28T12:13:55.540Z,952.1
2023-04-28T12:14:57.398Z,952.1
2023-04-28T12:15:59.414Z,952.1
2023-04-28T12:17:01.302Z,952
2023-04-28T12:18:03.141Z,952
2023-04-28T12:19:05.126Z,951.9
2023-04-28T12:20:08.053Z,951.9
2023-04-28T12:21:10.144Z,951.9
2023-04-28T12:22:11.896Z,952
2023-04-28T12:23:13.740Z,952
2023-04-28T12:24:15.578Z,951.9
2023-04-28T12:25:18.063Z,951.9
2023-04-28T12:26:20.007Z,951.9
2023-04-28T12:27:22.128Z,951.9
2023-04-28T12:28:23.914Z,951.9
2023-04-28T12:29:25.771Z,951.9
2023-04-28T12:30:27.715Z,951.9
2023-04-28T12:31:29.605Z,951.9
2023-04-28T12:32:31.755Z,951.9
2023-04-28T12:33:33.782Z,951.9
2023-04-28T12:34:35.945Z,951.9
2023-04-28T12:35:37.810Z,951.8
2023-04-28T12:36:39.648Z,951.9
2023-04-28T12:37:41.596Z,951.9
2023-04-28T12:38:43.436Z,951.8
2023-04-28T12:39:46.505Z,951.8
2023-04-28T12:40:48.893Z,951.8
2023-04-28T12:41:50.826Z,951.8
2023-04-28T12:42:52.674Z,951.8
2023-04-28T12:43:54.529Z,951.8
2023-04-28T12:44:56.377Z,951.8
2023-04-28T12:45:58.285Z,951.8
2023-04-28T12:47:00.184Z,951.8
2023-04-28T12:48:02.187Z,951.7
2023-04-28T12:49:04.192Z,951.7
2023-04-28T12:50:06.234Z,951.7
2023-04-28T12:51:08.422Z,951.7
2023-04-28T12:52:10.253Z,951.6
2023-04-28T12:53:12.023Z,951.6
2023-04-28T12:54:13.855Z,951.6
2023-04-28T12:55:15.806Z,951.7
2023-04-28T12:56:17.694Z,951.6
2023-04-28T12:57:19.492Z,951.6
2023-04-28T12:58:21.467Z,951.6
2023-04-28T12:59:23.303Z,951.6
2023-04-28T13:00:25.334Z,951.6
2023-04-28T13:01:27.307Z,951.6
2023-04-28T13:02:29.540Z,951.5
2023-04-28T13:03:32.155Z,951.6
2023-04-28T13:04:35.015Z,951.5
2023-04-28T13:05:37.267Z,951.5
2023-04-28T13:06:39.046Z,951.6
2023-04-28T13:07:40.796Z,951.4
2023-04-28T13:08:42.638Z,951.5
2023-04-28T13:09:45.810Z,951.5
2023-04-28T13:10:48.268Z,951.5
2023-04-28T13:11:50.068Z,951.5
2023-04-28T13:12:52.010Z,951.4
2023-04-28T13:13:53.801Z,951.5
2023-04-28T13:14:55.667Z,951.4
2023-04-28T13:15:57.554Z,951.4
2023-04-28T13:16:59.337Z,951.5
2023-04-28T13:18:01.459Z,951.5
2023-04-28T13:19:03.520Z,951.5
2023-04-28T13:20:05.571Z,951.5
2023-04-28T13:21:07.581Z,951.4
2023-04-28T13:22:09.458Z,951.4
2023-04-28T13:23:11.178Z,951.4
2023-04-28T13:24:13.030Z,951.4
2023-04-28T13:25:14.878Z,951.3